sensor_id;sensor_type;location;lat;lon;timestamp;P1;durP1;ratioP1;P2;durP2;ratioP2
18076;SDS011;9165;45.714;11.362;2023-06-04T00:01:57;2.80;;;2.30;;
18076;SDS011;9165;45.714;11.362;2023-06-04T00:04:25;3.17;;;1.93;;
18076;SDS011;9165;45.714;11.362;2023-06-04T00:06:52;3.93;;;2.33;;
18076;SDS011;9165;45.714;11.362;2023-06-04T00:09:18;3.20;;;2.33;;
18076;SDS011;9165;45.714;11.362;2023-06-04T00:11:46;3.63;;;2.17;;
18076;SDS011;9165;45.714;11.362;2023-06-04T00:14:13;3.97;;;2.17;;
18076;SDS011;9165;45.714;11.362;2023-06-04T00:16:40;6.47;;;2.30;;
18076;SDS011;9165;45.714;11.362;2023-06-04T00:19:07;4.40;;;2.40;;
18076;SDS011;9165;45.714;11.362;2023-06-04T00:21:34;5.47;;;2.40;;
18076;SDS011;9165;45.714;11.362;2023-06-04T00:24:01;2.33;;;2.13;;
18076;SDS011;9165;45.714;11.362;2023-06-04T00:26:28;4.63;;;2.93;;
18076;SDS011;9165;45.714;11.362;2023-06-04T00:28:56;4.40;;;2.70;;
18076;SDS011;9165;45.714;11.362;2023-06-04T00:31:23;2.03;;;1.93;;
18076;SDS011;9165;45.714;11.362;2023-06-04T00:33:50;3.93;;;1.90;;
18076;SDS011;9165;45.714;11.362;2023-06-04T00:36:17;2.60;;;2.17;;
18076;SDS011;9165;45.714;11.362;2023-06-04T00:38:44;3.07;;;2.27;;
18076;SDS011;9165;45.714;11.362;2023-06-04T00:41:10;7.27;;;2.47;;
18076;SDS011;9165;45.714;11.362;2023-06-04T00:43:37;2.30;;;2.10;;
18076;SDS011;9165;45.714;11.362;2023-06-04T00:46:05;2.43;;;2.23;;
18076;SDS011;9165;45.714;11.362;2023-06-04T00:48:32;3.97;;;2.50;;
18076;SDS011;9165;45.714;11.362;2023-06-04T00:50:59;2.77;;;2.20;;
18076;SDS011;9165;45.714;11.362;2023-06-04T00:53:26;3.03;;;2.57;;
18076;SDS011;9165;45.714;11.362;2023-06-04T00:55:53;2.53;;;2.33;;
18076;SDS011;9165;45.714;11.362;2023-06-04T00:58:19;2.60;;;2.40;;
18076;SDS011;9165;45.714;11.362;2023-06-04T01:00:46;3.57;;;2.77;;
18076;SDS011;9165;45.714;11.362;2023-06-04T01:03:16;2.90;;;2.37;;
18076;SDS011;9165;45.714;11.362;2023-06-04T01:05:48;4.77;;;2.23;;
18076;SDS011;9165;45.714;11.362;2023-06-04T01:08:17;5.10;;;2.00;;
18076;SDS011;9165;45.714;11.362;2023-06-04T01:10:50;2.50;;;2.00;;
18076;SDS011;9165;45.714;11.362;2023-06-04T01:13:17;5.63;;;2.23;;
18076;SDS011;9165;45.714;11.362;2023-06-04T01:15:43;4.30;;;2.33;;
18076;SDS011;9165;45.714;11.362;2023-06-04T01:18:10;2.97;;;2.30;;
18076;SDS011;9165;45.714;11.362;2023-06-04T01:20:50;2.93;;;2.53;;
18076;SDS011;9165;45.714;11.362;2023-06-04T01:23:30;2.70;;;2.50;;
18076;SDS011;9165;45.714;11.362;2023-06-04T01:26:00;3.03;;;2.53;;
18076;SDS011;9165;45.714;11.362;2023-06-04T01:28:28;2.87;;;2.37;;
18076;SDS011;9165;45.714;11.362;2023-06-04T01:30:55;2.97;;;2.23;;
18076;SDS011;9165;45.714;11.362;2023-06-04T01:33:22;4.07;;;2.70;;
18076;SDS011;9165;45.714;11.362;2023-06-04T01:35:50;5.23;;;2.63;;
18076;SDS011;9165;45.714;11.362;2023-06-04T01:38:17;4.07;;;2.40;;
18076;SDS011;9165;45.714;11.362;2023-06-04T01:40:44;4.13;;;2.97;;
18076;SDS011;9165;45.714;11.362;2023-06-04T01:43:11;4.27;;;2.90;;
18076;SDS011;9165;45.714;11.362;2023-06-04T01:45:38;3.10;;;2.83;;
18076;SDS011;9165;45.714;11.362;2023-06-04T01:48:05;3.40;;;2.70;;
18076;SDS011;9165;45.714;11.362;2023-06-04T01:50:32;3.47;;;2.73;;
18076;SDS011;9165;45.714;11.362;2023-06-04T01:53:00;2.60;;;2.40;;
18076;SDS011;9165;45.714;11.362;2023-06-04T01:55:27;3.83;;;2.53;;
18076;SDS011;9165;45.714;11.362;2023-06-04T01:57:58;3.10;;;2.50;;
18076;SDS011;9165;45.714;11.362;2023-06-04T02:00:25;2.67;;;2.47;;
18076;SDS011;9165;45.714;11.362;2023-06-04T02:02:51;4.97;;;2.60;;
18076;SDS011;9165;45.714;11.362;2023-06-04T02:05:20;3.30;;;2.60;;
18076;SDS011;9165;45.714;11.362;2023-06-04T02:07:47;3.17;;;2.87;;
18076;SDS011;9165;45.714;11.362;2023-06-04T02:10:16;2.83;;;2.20;;
18076;SDS011;9165;45.714;11.362;2023-06-04T02:12:52;3.33;;;2.40;;
18076;SDS011;9165;45.714;11.362;2023-06-04T02:15:19;4.27;;;2.70;;
18076;SDS011;9165;45.714;11.362;2023-06-04T02:17:47;2.87;;;2.67;;
18076;SDS011;9165;45.714;11.362;2023-06-04T02:20:15;2.93;;;2.60;;
18076;SDS011;9165;45.714;11.362;2023-06-04T02:22:42;3.47;;;2.57;;
18076;SDS011;9165;45.714;11.362;2023-06-04T02:25:09;4.33;;;3.00;;
18076;SDS011;9165;45.714;11.362;2023-06-04T02:27:37;2.70;;;2.50;;
18076;SDS011;9165;45.714;11.362;2023-06-04T02:30:04;7.93;;;2.70;;
18076;SDS011;9165;45.714;11.362;2023-06-04T02:32:32;2.90;;;2.60;;
18076;SDS011;9165;45.714;11.362;2023-06-04T02:35:01;3.07;;;2.77;;
18076;SDS011;9165;45.714;11.362;2023-06-04T02:37:27;4.03;;;3.30;;
18076;SDS011;9165;45.714;11.362;2023-06-04T02:39:54;3.30;;;2.73;;
18076;SDS011;9165;45.714;11.362;2023-06-04T02:42:21;2.97;;;2.63;;
18076;SDS011;9165;45.714;11.362;2023-06-04T02:44:49;5.00;;;3.03;;
18076;SDS011;9165;45.714;11.362;2023-06-04T02:47:16;6.50;;;3.43;;
18076;SDS011;9165;45.714;11.362;2023-06-04T02:49:44;4.03;;;3.53;;
18076;SDS011;9165;45.714;11.362;2023-06-04T02:52:11;10.47;;;3.67;;
18076;SDS011;9165;45.714;11.362;2023-06-04T02:54:38;8.37;;;4.07;;
18076;SDS011;9165;45.714;11.362;2023-06-04T02:57:05;6.50;;;4.00;;
18076;SDS011;9165;45.714;11.362;2023-06-04T02:59:32;4.67;;;3.83;;
18076;SDS011;9165;45.714;11.362;2023-06-04T03:02:00;4.50;;;3.83;;
18076;SDS011;9165;45.714;11.362;2023-06-04T03:04:27;3.33;;;3.03;;
18076;SDS011;9165;45.714;11.362;2023-06-04T03:06:59;3.17;;;2.87;;
18076;SDS011;9165;45.714;11.362;2023-06-04T03:09:26;3.57;;;3.10;;
18076;SDS011;9165;45.714;11.362;2023-06-04T03:11:52;3.80;;;2.97;;
18076;SDS011;9165;45.714;11.362;2023-06-04T03:14:19;3.97;;;3.20;;
18076;SDS011;9165;45.714;11.362;2023-06-04T03:16:46;3.77;;;2.97;;
18076;SDS011;9165;45.714;11.362;2023-06-04T03:19:15;3.73;;;3.43;;
18076;SDS011;9165;45.714;11.362;2023-06-04T03:21:42;5.87;;;3.47;;
18076;SDS011;9165;45.714;11.362;2023-06-04T03:24:10;5.23;;;3.57;;
18076;SDS011;9165;45.714;11.362;2023-06-04T03:26:36;4.30;;;3.90;;
18076;SDS011;9165;45.714;11.362;2023-06-04T03:29:03;4.10;;;3.40;;
18076;SDS011;9165;45.714;11.362;2023-06-04T03:31:30;5.07;;;3.50;;
18076;SDS011;9165;45.714;11.362;2023-06-04T03:33:57;4.23;;;3.60;;
18076;SDS011;9165;45.714;11.362;2023-06-04T03:36:25;7.77;;;3.10;;
18076;SDS011;9165;45.714;11.362;2023-06-04T03:38:56;4.73;;;3.77;;
18076;SDS011;9165;45.714;11.362;2023-06-04T03:41:23;4.13;;;3.30;;
18076;SDS011;9165;45.714;11.362;2023-06-04T03:43:51;4.73;;;3.63;;
18076;SDS011;9165;45.714;11.362;2023-06-04T03:46:17;4.80;;;4.13;;
18076;SDS011;9165;45.714;11.362;2023-06-04T03:48:44;4.00;;;3.60;;
18076;SDS011;9165;45.714;11.362;2023-06-04T03:51:11;4.53;;;3.10;;
18076;SDS011;9165;45.714;11.362;2023-06-04T03:53:39;4.73;;;3.40;;
18076;SDS011;9165;45.714;11.362;2023-06-04T03:56:06;8.20;;;3.93;;
18076;SDS011;9165;45.714;11.362;2023-06-04T03:58:32;4.37;;;3.63;;
18076;SDS011;9165;45.714;11.362;2023-06-04T04:01:01;4.93;;;3.87;;
18076;SDS011;9165;45.714;11.362;2023-06-04T04:03:29;4.43;;;3.47;;
18076;SDS011;9165;45.714;11.362;2023-06-04T04:05:56;4.87;;;4.07;;
18076;SDS011;9165;45.714;11.362;2023-06-04T04:08:23;4.17;;;3.77;;
18076;SDS011;9165;45.714;11.362;2023-06-04T04:10:52;6.73;;;3.90;;
18076;SDS011;9165;45.714;11.362;2023-06-04T04:13:19;4.63;;;4.23;;
18076;SDS011;9165;45.714;11.362;2023-06-04T04:15:46;4.97;;;4.00;;
18076;SDS011;9165;45.714;11.362;2023-06-04T04:18:13;4.73;;;4.13;;
18076;SDS011;9165;45.714;11.362;2023-06-04T04:20:42;5.83;;;4.07;;
18076;SDS011;9165;45.714;11.362;2023-06-04T04:23:08;4.60;;;3.97;;
18076;SDS011;9165;45.714;11.362;2023-06-04T04:25:36;6.20;;;3.53;;
18076;SDS011;9165;45.714;11.362;2023-06-04T04:28:04;4.83;;;4.33;;
18076;SDS011;9165;45.714;11.362;2023-06-04T04:30:31;6.50;;;3.40;;
18076;SDS011;9165;45.714;11.362;2023-06-04T04:33:00;4.97;;;3.87;;
18076;SDS011;9165;45.714;11.362;2023-06-04T04:35:26;5.03;;;3.97;;
18076;SDS011;9165;45.714;11.362;2023-06-04T04:37:54;5.23;;;4.70;;
18076;SDS011;9165;45.714;11.362;2023-06-04T04:40:20;6.30;;;3.83;;
18076;SDS011;9165;45.714;11.362;2023-06-04T04:42:47;6.53;;;4.10;;
18076;SDS011;9165;45.714;11.362;2023-06-04T04:45:15;4.63;;;4.07;;
18076;SDS011;9165;45.714;11.362;2023-06-04T04:47:42;4.80;;;3.90;;
18076;SDS011;9165;45.714;11.362;2023-06-04T04:50:09;4.70;;;4.20;;
18076;SDS011;9165;45.714;11.362;2023-06-04T04:52:36;5.90;;;4.30;;
18076;SDS011;9165;45.714;11.362;2023-06-04T04:55:03;4.07;;;3.53;;
18076;SDS011;9165;45.714;11.362;2023-06-04T04:57:30;4.10;;;3.67;;
18076;SDS011;9165;45.714;11.362;2023-06-04T04:59:57;3.73;;;3.43;;
18076;SDS011;9165;45.714;11.362;2023-06-04T05:02:25;5.00;;;3.90;;
18076;SDS011;9165;45.714;11.362;2023-06-04T05:04:52;3.50;;;3.13;;
18076;SDS011;9165;45.714;11.362;2023-06-04T05:07:18;4.60;;;3.80;;
18076;SDS011;9165;45.714;11.362;2023-06-04T05:09:46;3.93;;;3.53;;
18076;SDS011;9165;45.714;11.362;2023-06-04T05:12:13;5.23;;;3.90;;
18076;SDS011;9165;45.714;11.362;2023-06-04T05:14:41;3.73;;;3.43;;
18076;SDS011;9165;45.714;11.362;2023-06-04T05:17:08;5.30;;;3.60;;
18076;SDS011;9165;45.714;11.362;2023-06-04T05:19:37;4.13;;;3.60;;
18076;SDS011;9165;45.714;11.362;2023-06-04T05:22:03;4.20;;;3.80;;
18076;SDS011;9165;45.714;11.362;2023-06-04T05:24:30;3.83;;;3.50;;
18076;SDS011;9165;45.714;11.362;2023-06-04T05:26:57;5.07;;;3.57;;
18076;SDS011;9165;45.714;11.362;2023-06-04T05:29:24;3.83;;;3.53;;
18076;SDS011;9165;45.714;11.362;2023-06-04T05:31:51;3.93;;;3.57;;
18076;SDS011;9165;45.714;11.362;2023-06-04T05:34:18;5.47;;;3.90;;
18076;SDS011;9165;45.714;11.362;2023-06-04T05:36:46;4.33;;;3.60;;
18076;SDS011;9165;45.714;11.362;2023-06-04T05:39:12;5.57;;;3.63;;
18076;SDS011;9165;45.714;11.362;2023-06-04T05:41:39;4.70;;;4.30;;
18076;SDS011;9165;45.714;11.362;2023-06-04T05:44:07;4.47;;;3.90;;
18076;SDS011;9165;45.714;11.362;2023-06-04T05:46:34;4.07;;;3.63;;
18076;SDS011;9165;45.714;11.362;2023-06-04T05:49:00;3.60;;;3.27;;
18076;SDS011;9165;45.714;11.362;2023-06-04T05:51:27;5.20;;;3.90;;
18076;SDS011;9165;45.714;11.362;2023-06-04T05:53:55;4.80;;;4.10;;
18076;SDS011;9165;45.714;11.362;2023-06-04T05:56:21;5.63;;;3.90;;
18076;SDS011;9165;45.714;11.362;2023-06-04T05:58:51;4.37;;;3.97;;
18076;SDS011;9165;45.714;11.362;2023-06-04T06:01:18;6.83;;;4.40;;
18076;SDS011;9165;45.714;11.362;2023-06-04T06:03:45;4.10;;;3.70;;
18076;SDS011;9165;45.714;11.362;2023-06-04T06:06:11;4.63;;;4.13;;
18076;SDS011;9165;45.714;11.362;2023-06-04T06:08:38;5.40;;;3.97;;
18076;SDS011;9165;45.714;11.362;2023-06-04T06:11:07;4.57;;;4.17;;
18076;SDS011;9165;45.714;11.362;2023-06-04T06:13:33;5.97;;;4.17;;
18076;SDS011;9165;45.714;11.362;2023-06-04T06:16:00;5.73;;;3.67;;
18076;SDS011;9165;45.714;11.362;2023-06-04T06:18:27;4.33;;;3.93;;
18076;SDS011;9165;45.714;11.362;2023-06-04T06:20:54;4.93;;;3.90;;
18076;SDS011;9165;45.714;11.362;2023-06-04T06:23:20;4.30;;;3.63;;
18076;SDS011;9165;45.714;11.362;2023-06-04T06:25:49;3.73;;;3.43;;
18076;SDS011;9165;45.714;11.362;2023-06-04T06:28:18;3.87;;;3.37;;
18076;SDS011;9165;45.714;11.362;2023-06-04T06:30:45;6.70;;;4.40;;
18076;SDS011;9165;45.714;11.362;2023-06-04T06:33:12;5.57;;;3.87;;
18076;SDS011;9165;45.714;11.362;2023-06-04T06:35:39;5.73;;;4.30;;
18076;SDS011;9165;45.714;11.362;2023-06-04T06:38:06;6.10;;;3.90;;
18076;SDS011;9165;45.714;11.362;2023-06-04T06:40:33;4.60;;;3.43;;
18076;SDS011;9165;45.714;11.362;2023-06-04T06:43:00;4.67;;;4.00;;
18076;SDS011;9165;45.714;11.362;2023-06-04T06:45:28;5.13;;;3.80;;
18076;SDS011;9165;45.714;11.362;2023-06-04T06:47:55;4.50;;;4.10;;
18076;SDS011;9165;45.714;11.362;2023-06-04T06:50:21;4.70;;;4.20;;
18076;SDS011;9165;45.714;11.362;2023-06-04T06:52:49;6.40;;;3.77;;
18076;SDS011;9165;45.714;11.362;2023-06-04T06:55:15;5.40;;;4.37;;
18076;SDS011;9165;45.714;11.362;2023-06-04T06:57:42;4.47;;;4.07;;
18076;SDS011;9165;45.714;11.362;2023-06-04T07:00:09;4.30;;;3.90;;
18076;SDS011;9165;45.714;11.362;2023-06-04T07:02:38;4.20;;;3.57;;
18076;SDS011;9165;45.714;11.362;2023-06-04T07:05:04;6.13;;;3.73;;
18076;SDS011;9165;45.714;11.362;2023-06-04T07:07:31;5.67;;;3.60;;
18076;SDS011;9165;45.714;11.362;2023-06-04T07:09:58;5.70;;;4.07;;
18076;SDS011;9165;45.714;11.362;2023-06-04T07:12:26;6.27;;;3.87;;
18076;SDS011;9165;45.714;11.362;2023-06-04T07:14:52;7.43;;;3.83;;
18076;SDS011;9165;45.714;11.362;2023-06-04T07:17:19;3.97;;;3.57;;
18076;SDS011;9165;45.714;11.362;2023-06-04T07:19:47;5.20;;;3.77;;
18076;SDS011;9165;45.714;11.362;2023-06-04T07:22:14;3.70;;;3.40;;
18076;SDS011;9165;45.714;11.362;2023-06-04T07:24:41;3.87;;;3.50;;
18076;SDS011;9165;45.714;11.362;2023-06-04T07:27:11;8.77;;;4.30;;
18076;SDS011;9165;45.714;11.362;2023-06-04T07:29:38;6.03;;;3.90;;
18076;SDS011;9165;45.714;11.362;2023-06-04T07:32:05;4.60;;;3.80;;
18076;SDS011;9165;45.714;11.362;2023-06-04T07:34:31;5.90;;;4.03;;
18076;SDS011;9165;45.714;11.362;2023-06-04T07:37:00;4.23;;;3.80;;
18076;SDS011;9165;45.714;11.362;2023-06-04T07:39:27;4.60;;;3.83;;
18076;SDS011;9165;45.714;11.362;2023-06-04T07:41:53;7.03;;;4.33;;
18076;SDS011;9165;45.714;11.362;2023-06-04T07:44:20;4.40;;;4.00;;
18076;SDS011;9165;45.714;11.362;2023-06-04T07:46:47;9.80;;;4.03;;
18076;SDS011;9165;45.714;11.362;2023-06-04T07:49:13;4.97;;;3.60;;
18076;SDS011;9165;45.714;11.362;2023-06-04T07:51:40;5.83;;;4.00;;
18076;SDS011;9165;45.714;11.362;2023-06-04T07:54:09;5.43;;;4.00;;
18076;SDS011;9165;45.714;11.362;2023-06-04T07:56:36;4.37;;;3.97;;
18076;SDS011;9165;45.714;11.362;2023-06-04T07:59:03;7.43;;;5.00;;
18076;SDS011;9165;45.714;11.362;2023-06-04T08:01:30;8.30;;;4.07;;
18076;SDS011;9165;45.714;11.362;2023-06-04T08:03:57;5.70;;;4.40;;
18076;SDS011;9165;45.714;11.362;2023-06-04T08:06:24;4.57;;;4.17;;
18076;SDS011;9165;45.714;11.362;2023-06-04T08:08:52;5.33;;;4.60;;
18076;SDS011;9165;45.714;11.362;2023-06-04T08:11:20;4.90;;;4.30;;
18076;SDS011;9165;45.714;11.362;2023-06-04T08:13:47;6.57;;;4.60;;
18076;SDS011;9165;45.714;11.362;2023-06-04T08:16:14;7.97;;;5.03;;
18076;SDS011;9165;45.714;11.362;2023-06-04T08:18:43;6.07;;;4.43;;
18076;SDS011;9165;45.714;11.362;2023-06-04T08:21:10;5.73;;;5.03;;
18076;SDS011;9165;45.714;11.362;2023-06-04T08:23:37;6.70;;;5.83;;
18076;SDS011;9165;45.714;11.362;2023-06-04T08:26:04;6.30;;;4.97;;
18076;SDS011;9165;45.714;11.362;2023-06-04T08:28:32;7.83;;;5.70;;
18076;SDS011;9165;45.714;11.362;2023-06-04T08:30:59;9.97;;;5.00;;
18076;SDS011;9165;45.714;11.362;2023-06-04T08:33:25;8.53;;;6.30;;
18076;SDS011;9165;45.714;11.362;2023-06-04T08:35:52;10.70;;;5.70;;
18076;SDS011;9165;45.714;11.362;2023-06-04T08:38:18;11.03;;;5.97;;
18076;SDS011;9165;45.714;11.362;2023-06-04T08:40:46;5.93;;;4.90;;
18076;SDS011;9165;45.714;11.362;2023-06-04T08:43:15;10.13;;;6.23;;
18076;SDS011;9165;45.714;11.362;2023-06-04T08:45:43;6.37;;;4.53;;
18076;SDS011;9165;45.714;11.362;2023-06-04T08:48:12;5.63;;;4.30;;
18076;SDS011;9165;45.714;11.362;2023-06-04T08:50:39;5.20;;;4.50;;
18076;SDS011;9165;45.714;11.362;2023-06-04T08:53:10;6.20;;;4.73;;
18076;SDS011;9165;45.714;11.362;2023-06-04T08:55:37;7.37;;;4.57;;
18076;SDS011;9165;45.714;11.362;2023-06-04T08:58:05;7.53;;;5.77;;
18076;SDS011;9165;45.714;11.362;2023-06-04T09:00:33;7.20;;;5.60;;
18076;SDS011;9165;45.714;11.362;2023-06-04T09:03:02;5.07;;;4.53;;
18076;SDS011;9165;45.714;11.362;2023-06-04T09:05:29;5.60;;;4.83;;
18076;SDS011;9165;45.714;11.362;2023-06-04T09:07:58;9.80;;;5.00;;
18076;SDS011;9165;45.714;11.362;2023-06-04T09:10:28;4.60;;;4.20;;
18076;SDS011;9165;45.714;11.362;2023-06-04T09:12:56;5.57;;;4.40;;
18076;SDS011;9165;45.714;11.362;2023-06-04T09:15:23;5.87;;;4.73;;
18076;SDS011;9165;45.714;11.362;2023-06-04T09:17:50;6.27;;;4.70;;
18076;SDS011;9165;45.714;11.362;2023-06-04T09:20:21;5.53;;;4.30;;
18076;SDS011;9165;45.714;11.362;2023-06-04T09:22:48;6.03;;;4.97;;
18076;SDS011;9165;45.714;11.362;2023-06-04T09:25:19;8.10;;;5.07;;
18076;SDS011;9165;45.714;11.362;2023-06-04T09:27:46;5.50;;;4.73;;
18076;SDS011;9165;45.714;11.362;2023-06-04T09:30:13;7.40;;;5.97;;
18076;SDS011;9165;45.714;11.362;2023-06-04T09:32:40;4.80;;;4.30;;
18076;SDS011;9165;45.714;11.362;2023-06-04T09:35:10;6.00;;;4.90;;
18076;SDS011;9165;45.714;11.362;2023-06-04T09:37:39;10.00;;;5.27;;
18076;SDS011;9165;45.714;11.362;2023-06-04T09:40:06;6.13;;;4.30;;
18076;SDS011;9165;45.714;11.362;2023-06-04T09:42:41;6.10;;;4.40;;
18076;SDS011;9165;45.714;11.362;2023-06-04T09:45:08;7.97;;;5.87;;
18076;SDS011;9165;45.714;11.362;2023-06-04T09:47:38;5.87;;;4.93;;
18076;SDS011;9165;45.714;11.362;2023-06-04T09:50:06;8.03;;;4.80;;
18076;SDS011;9165;45.714;11.362;2023-06-04T09:52:33;5.63;;;5.13;;
18076;SDS011;9165;45.714;11.362;2023-06-04T09:55:01;9.27;;;5.57;;
18076;SDS011;9165;45.714;11.362;2023-06-04T09:57:28;6.60;;;5.90;;
18076;SDS011;9165;45.714;11.362;2023-06-04T09:59:57;5.80;;;5.00;;
18076;SDS011;9165;45.714;11.362;2023-06-04T10:02:24;8.60;;;5.10;;
18076;SDS011;9165;45.714;11.362;2023-06-04T10:04:53;7.10;;;5.30;;
18076;SDS011;9165;45.714;11.362;2023-06-04T10:07:20;6.10;;;5.40;;
18076;SDS011;9165;45.714;11.362;2023-06-04T10:09:47;6.10;;;4.90;;
18076;SDS011;9165;45.714;11.362;2023-06-04T10:12:16;5.60;;;4.80;;
18076;SDS011;9165;45.714;11.362;2023-06-04T10:14:45;6.73;;;5.20;;
18076;SDS011;9165;45.714;11.362;2023-06-04T10:17:14;5.77;;;4.37;;
18076;SDS011;9165;45.714;11.362;2023-06-04T10:19:42;5.43;;;4.43;;
18076;SDS011;9165;45.714;11.362;2023-06-04T10:22:09;6.60;;;5.27;;
18076;SDS011;9165;45.714;11.362;2023-06-04T10:24:36;8.20;;;6.00;;
18076;SDS011;9165;45.714;11.362;2023-06-04T10:27:03;6.27;;;5.63;;
18076;SDS011;9165;45.714;11.362;2023-06-04T10:29:37;7.17;;;5.60;;
18076;SDS011;9165;45.714;11.362;2023-06-04T10:32:03;6.67;;;5.03;;
18076;SDS011;9165;45.714;11.362;2023-06-04T10:34:30;6.47;;;4.70;;
18076;SDS011;9165;45.714;11.362;2023-06-04T10:36:57;7.00;;;5.10;;
18076;SDS011;9165;45.714;11.362;2023-06-04T10:39:27;5.30;;;4.77;;
18076;SDS011;9165;45.714;11.362;2023-06-04T10:41:58;10.50;;;5.23;;
18076;SDS011;9165;45.714;11.362;2023-06-04T10:44:25;5.73;;;4.23;;
18076;SDS011;9165;45.714;11.362;2023-06-04T10:46:53;6.80;;;5.17;;
18076;SDS011;9165;45.714;11.362;2023-06-04T10:49:25;8.00;;;5.57;;
18076;SDS011;9165;45.714;11.362;2023-06-04T10:51:52;12.87;;;4.97;;
18076;SDS011;9165;45.714;11.362;2023-06-04T10:54:22;9.07;;;5.60;;
18076;SDS011;9165;45.714;11.362;2023-06-04T10:56:49;12.37;;;8.63;;
18076;SDS011;9165;45.714;11.362;2023-06-04T10:59:16;6.13;;;4.60;;
18076;SDS011;9165;45.714;11.362;2023-06-04T11:01:43;6.83;;;4.80;;
18076;SDS011;9165;45.714;11.362;2023-06-04T11:04:22;9.57;;;5.03;;
18076;SDS011;9165;45.714;11.362;2023-06-04T11:06:59;5.60;;;5.00;;
18076;SDS011;9165;45.714;11.362;2023-06-04T11:09:27;7.50;;;4.73;;
18076;SDS011;9165;45.714;11.362;2023-06-04T11:11:57;5.03;;;4.33;;
18076;SDS011;9165;45.714;11.362;2023-06-04T11:14:23;7.87;;;5.03;;
18076;SDS011;9165;45.714;11.362;2023-06-04T11:16:50;5.17;;;4.63;;
18076;SDS011;9165;45.714;11.362;2023-06-04T11:19:17;5.70;;;4.60;;
18076;SDS011;9165;45.714;11.362;2023-06-04T11:21:45;5.63;;;4.50;;
18076;SDS011;9165;45.714;11.362;2023-06-04T11:24:12;8.93;;;4.30;;
18076;SDS011;9165;45.714;11.362;2023-06-04T11:26:38;5.97;;;5.13;;
18076;SDS011;9165;45.714;11.362;2023-06-04T11:29:06;8.47;;;4.47;;
18076;SDS011;9165;45.714;11.362;2023-06-04T11:31:40;7.03;;;6.03;;
18076;SDS011;9165;45.714;11.362;2023-06-04T11:34:07;4.90;;;4.40;;
18076;SDS011;9165;45.714;11.362;2023-06-04T11:36:34;6.17;;;4.60;;
18076;SDS011;9165;45.714;11.362;2023-06-04T11:39:03;7.20;;;4.83;;
18076;SDS011;9165;45.714;11.362;2023-06-04T11:41:32;5.53;;;4.53;;
18076;SDS011;9165;45.714;11.362;2023-06-04T11:44:00;7.97;;;4.90;;
18076;SDS011;9165;45.714;11.362;2023-06-04T11:46:28;6.80;;;5.30;;
18076;SDS011;9165;45.714;11.362;2023-06-04T11:48:54;6.50;;;5.60;;
18076;SDS011;9165;45.714;11.362;2023-06-04T11:51:21;5.10;;;4.50;;
18076;SDS011;9165;45.714;11.362;2023-06-04T11:53:48;5.23;;;4.60;;
18076;SDS011;9165;45.714;11.362;2023-06-04T11:56:16;5.60;;;5.03;;
18076;SDS011;9165;45.714;11.362;2023-06-04T11:58:43;11.03;;;5.40;;
18076;SDS011;9165;45.714;11.362;2023-06-04T12:01:11;5.63;;;5.13;;
18076;SDS011;9165;45.714;11.362;2023-06-04T12:03:39;5.10;;;4.60;;
18076;SDS011;9165;45.714;11.362;2023-06-04T12:06:10;6.07;;;5.47;;
18076;SDS011;9165;45.714;11.362;2023-06-04T12:08:44;14.13;;;5.97;;
18076;SDS011;9165;45.714;11.362;2023-06-04T12:11:21;5.77;;;5.27;;
18076;SDS011;9165;45.714;11.362;2023-06-04T12:13:48;6.80;;;5.50;;
18076;SDS011;9165;45.714;11.362;2023-06-04T12:16:15;6.60;;;5.40;;
18076;SDS011;9165;45.714;11.362;2023-06-04T12:18:41;9.50;;;5.80;;
18076;SDS011;9165;45.714;11.362;2023-06-04T12:21:15;7.90;;;5.70;;
18076;SDS011;9165;45.714;11.362;2023-06-04T12:23:42;6.60;;;5.90;;
18076;SDS011;9165;45.714;11.362;2023-06-04T12:26:21;6.30;;;5.70;;
18076;SDS011;9165;45.714;11.362;2023-06-04T12:29:00;5.70;;;4.60;;
18076;SDS011;9165;45.714;11.362;2023-06-04T12:31:26;6.30;;;5.20;;
18076;SDS011;9165;45.714;11.362;2023-06-04T12:33:58;7.57;;;5.07;;
18076;SDS011;9165;45.714;11.362;2023-06-04T12:36:25;5.93;;;4.83;;
18076;SDS011;9165;45.714;11.362;2023-06-04T12:38:53;8.13;;;5.03;;
18076;SDS011;9165;45.714;11.362;2023-06-04T12:41:21;4.83;;;4.33;;
18076;SDS011;9165;45.714;11.362;2023-06-04T12:43:48;5.63;;;4.60;;
18076;SDS011;9165;45.714;11.362;2023-06-04T12:46:14;6.30;;;4.93;;
18076;SDS011;9165;45.714;11.362;2023-06-04T12:48:41;7.67;;;5.10;;
18076;SDS011;9165;45.714;11.362;2023-06-04T12:51:08;8.67;;;4.83;;
18076;SDS011;9165;45.714;11.362;2023-06-04T12:53:35;7.30;;;4.50;;
18076;SDS011;9165;45.714;11.362;2023-06-04T12:56:02;5.73;;;5.20;;
18076;SDS011;9165;45.714;11.362;2023-06-04T12:58:30;6.27;;;5.30;;
18076;SDS011;9165;45.714;11.362;2023-06-04T13:00:57;5.03;;;4.53;;
18076;SDS011;9165;45.714;11.362;2023-06-04T13:03:25;6.07;;;4.30;;
18076;SDS011;9165;45.714;11.362;2023-06-04T13:05:52;4.47;;;4.07;;
18076;SDS011;9165;45.714;11.362;2023-06-04T13:08:19;7.47;;;4.80;;
18076;SDS011;9165;45.714;11.362;2023-06-04T13:10:47;5.83;;;4.73;;
18076;SDS011;9165;45.714;11.362;2023-06-04T13:13:14;6.77;;;4.77;;
18076;SDS011;9165;45.714;11.362;2023-06-04T13:15:43;7.43;;;4.97;;
18076;SDS011;9165;45.714;11.362;2023-06-04T13:18:10;8.17;;;6.20;;
18076;SDS011;9165;45.714;11.362;2023-06-04T13:20:36;5.70;;;5.10;;
18076;SDS011;9165;45.714;11.362;2023-06-04T13:23:03;8.03;;;4.57;;
18076;SDS011;9165;45.714;11.362;2023-06-04T13:25:30;5.67;;;5.07;;
18076;SDS011;9165;45.714;11.362;2023-06-04T13:27:57;6.07;;;4.83;;
18076;SDS011;9165;45.714;11.362;2023-06-04T13:30:24;5.60;;;4.77;;
18076;SDS011;9165;45.714;11.362;2023-06-04T13:32:52;5.73;;;4.80;;
18076;SDS011;9165;45.714;11.362;2023-06-04T13:35:19;7.17;;;5.10;;
18076;SDS011;9165;45.714;11.362;2023-06-04T13:37:46;7.55;;;5.38;;
18076;SDS011;9165;45.714;11.362;2023-06-04T13:40:13;4.82;;;4.15;;
18076;SDS011;9165;45.714;11.362;2023-06-04T13:42:40;6.82;;;4.88;;
18076;SDS011;9165;45.714;11.362;2023-06-04T13:45:08;5.38;;;4.18;;
18076;SDS011;9165;45.714;11.362;2023-06-04T13:47:34;4.70;;;4.20;;
18076;SDS011;9165;45.714;11.362;2023-06-04T13:50:03;6.07;;;4.70;;
18076;SDS011;9165;45.714;11.362;2023-06-04T13:52:29;6.05;;;4.43;;
18076;SDS011;9165;45.714;11.362;2023-06-04T13:54:56;5.78;;;4.93;;
18076;SDS011;9165;45.714;11.362;2023-06-04T13:57:24;4.72;;;4.25;;
18076;SDS011;9165;45.714;11.362;2023-06-04T13:59:51;6.32;;;4.82;;
18076;SDS011;9165;45.714;11.362;2023-06-04T14:02:18;5.97;;;4.53;;
18076;SDS011;9165;45.714;11.362;2023-06-04T14:04:45;6.00;;;5.07;;
18076;SDS011;9165;45.714;11.362;2023-06-04T14:07:13;5.88;;;5.03;;
18076;SDS011;9165;45.714;11.362;2023-06-04T14:09:39;6.53;;;4.35;;
18076;SDS011;9165;45.714;11.362;2023-06-04T14:12:07;6.10;;;4.28;;
18076;SDS011;9165;45.714;11.362;2023-06-04T14:14:34;8.02;;;5.15;;
18076;SDS011;9165;45.714;11.362;2023-06-04T14:17:02;4.60;;;4.13;;
18076;SDS011;9165;45.714;11.362;2023-06-04T14:19:29;4.60;;;4.15;;
18076;SDS011;9165;45.714;11.362;2023-06-04T14:21:55;4.25;;;3.60;;
18076;SDS011;9165;45.714;11.362;2023-06-04T14:24:23;5.90;;;4.30;;
18076;SDS011;9165;45.714;11.362;2023-06-04T14:26:50;5.70;;;4.47;;
18076;SDS011;9165;45.714;11.362;2023-06-04T14:29:16;5.18;;;4.68;;
18076;SDS011;9165;45.714;11.362;2023-06-04T14:31:43;6.32;;;4.63;;
18076;SDS011;9165;45.714;11.362;2023-06-04T14:34:12;5.50;;;3.95;;
18076;SDS011;9165;45.714;11.362;2023-06-04T14:36:39;5.25;;;4.75;;
18076;SDS011;9165;45.714;11.362;2023-06-04T14:39:05;9.57;;;4.20;;
18076;SDS011;9165;45.714;11.362;2023-06-04T14:41:33;4.20;;;3.72;;
18076;SDS011;9165;45.714;11.362;2023-06-04T14:44:00;6.95;;;4.90;;
18076;SDS011;9165;45.714;11.362;2023-06-04T14:46:27;4.93;;;4.40;;
18076;SDS011;9165;45.714;11.362;2023-06-04T14:48:53;5.88;;;4.25;;
18076;SDS011;9165;45.714;11.362;2023-06-04T14:51:20;5.05;;;4.05;;